createdAt,value
2022-09-12T00:02:38.099Z,2.95
2022-09-12T00:08:09.430Z,3.10
2022-09-12T00:13:41.976Z,3.55
2022-09-12T00:24:44.743Z,3.28
2022-09-12T00:30:15.921Z,3.03
2022-09-12T00:35:49.795Z,3.40
2022-09-12T00:41:29.410Z,3.53
2022-09-12T00:47:16.896Z,3.08
2022-09-12T00:52:54.129Z,3.38
2022-09-12T00:58:37.275Z,3.30
2022-09-12T01:04:10.342Z,2.90
2022-09-12T01:09:43.111Z,3.17
2022-09-12T01:15:14.374Z,3.20
2022-09-12T01:21:06.005Z,2.92
2022-09-12T01:27:04.903Z,3.10
2022-09-12T01:32:42.314Z,3.05
2022-09-12T01:38:28.163Z,2.95
2022-09-12T01:44:02.324Z,3.28
2022-09-12T01:49:52.260Z,2.95
2022-09-12T01:55:43.775Z,2.88
2022-09-12T02:01:18.391Z,2.83
2022-09-12T02:06:55.551Z,2.75
2022-09-12T02:12:31.712Z,2.90
2022-09-12T02:18:05.638Z,2.80
2022-09-12T02:23:41.855Z,2.70
2022-09-12T02:29:13.235Z,2.90
2022-09-12T02:34:44.507Z,2.85
2022-09-12T02:40:16.114Z,2.50
2022-09-12T02:45:47.230Z,2.92
2022-09-12T02:51:23.007Z,2.70
2022-09-12T02:56:55.027Z,2.90
2022-09-12T03:02:59.166Z,3.03
2022-09-12T03:08:51.418Z,3.20
2022-09-12T03:14:34.460Z,3.60
2022-09-12T03:20:24.065Z,2.75
2022-09-12T03:26:01.496Z,3.10
2022-09-12T03:31:32.916Z,2.80
2022-09-12T03:37:04.357Z,3.10
2022-09-12T03:42:35.284Z,3.05
2022-09-12T03:48:06.984Z,3.03
2022-09-12T03:53:38.027Z,3.10
2022-09-12T03:59:09.507Z,3.05
2022-09-12T04:04:46.586Z,2.75
2022-09-12T04:10:17.954Z,2.58
2022-09-12T04:15:59.560Z,2.88
2022-09-12T04:21:31.132Z,2.83
2022-09-12T04:27:07.182Z,3.20
2022-09-12T04:32:38.843Z,2.63
2022-09-12T04:38:10.049Z,2.70
2022-09-12T04:43:41.399Z,2.80
2022-09-12T04:49:14.388Z,3.35
2022-09-12T04:54:45.668Z,2.72
2022-09-12T05:00:17.077Z,2.90
2022-09-12T05:05:48.219Z,3.15
2022-09-12T05:11:53.013Z,3.05
2022-09-12T05:17:22.374Z,3.13
2022-09-12T05:22:53.148Z,2.95
2022-09-12T05:28:26.237Z,3.10
2022-09-12T05:33:58.199Z,3.15
2022-09-12T05:39:28.956Z,2.85
2022-09-12T05:44:59.931Z,3.10
2022-09-12T05:50:31.129Z,3.00
2022-09-12T05:56:13.631Z,3.17
2022-09-12T06:01:44.781Z,3.45
2022-09-12T06:07:15.809Z,3.00
2022-09-12T06:12:47.738Z,3.28
2022-09-12T06:18:18.748Z,3.20
2022-09-12T06:23:50.238Z,2.83
2022-09-12T06:29:21.390Z,3.20
2022-09-12T06:34:52.771Z,2.90
2022-09-12T06:40:23.757Z,3.25
2022-09-12T06:45:54.711Z,2.78
2022-09-12T06:51:26.586Z,3.17
2022-09-12T06:56:57.770Z,3.22
2022-09-12T07:02:29.133Z,3.65
2022-09-12T07:08:00.239Z,3.67
2022-09-12T07:13:31.074Z,3.65
2022-09-12T07:19:04.119Z,3.33
2022-09-12T07:24:35.295Z,3.80
2022-09-12T07:30:08.034Z,3.63
2022-09-12T07:35:39.559Z,3.73
2022-09-12T07:41:12.888Z,4.07
2022-09-12T07:46:44.123Z,3.78
2022-09-12T07:52:14.959Z,4.22
2022-09-12T07:57:50.797Z,7.45
2022-09-12T08:03:22.236Z,6.35
2022-09-12T08:08:55.867Z,9.02
2022-09-12T08:14:27.670Z,8.88
2022-09-12T08:19:59.094Z,7.28
2022-09-12T08:25:30.016Z,7.28
2022-09-12T08:31:02.450Z,14.25
2022-09-12T08:36:34.477Z,11.30
2022-09-12T08:42:06.722Z,22.98
2022-09-12T08:47:43.605Z,20.38
2022-09-12T08:53:18.432Z,12.60
2022-09-12T08:58:49.689Z,29.10
2022-09-12T09:04:51.208Z,18.60
2022-09-12T09:10:35.543Z,13.88
2022-09-12T09:16:39.446Z,10.40
2022-09-12T09:22:28.016Z,9.37
2022-09-12T09:28:05.206Z,8.15
2022-09-12T09:33:36.497Z,12.40
2022-09-12T09:39:16.953Z,21.92
2022-09-12T09:44:49.308Z,23.50
2022-09-12T09:50:20.673Z,14.48
2022-09-12T09:55:54.074Z,9.60
2022-09-12T10:01:25.141Z,8.95
2022-09-12T10:07:01.808Z,7.45
2022-09-12T10:12:33.733Z,7.55
2022-09-12T10:18:05.039Z,7.03
2022-09-12T10:23:37.918Z,7.15
2022-09-12T10:29:17.191Z,6.28
2022-09-12T10:34:48.519Z,6.13
2022-09-12T10:40:29.072Z,5.53
2022-09-12T10:46:21.906Z,5.00
2022-09-12T10:51:54.714Z,4.60
2022-09-12T10:57:41.259Z,5.45
2022-09-12T11:03:23.023Z,4.28
2022-09-12T11:09:06.480Z,3.97
2022-09-12T11:15:03.173Z,4.00
2022-09-12T11:21:10.023Z,3.38
2022-09-12T11:26:51.292Z,2.85
2022-09-12T11:32:28.324Z,3.10
2022-09-12T11:38:18.498Z,3.20
2022-09-12T11:44:03.782Z,3.20
2022-09-12T11:49:35.717Z,2.85
2022-09-12T11:55:17.384Z,3.13
2022-09-12T12:00:52.078Z,3.47
2022-09-12T12:06:56.327Z,3.78
2022-09-12T12:12:29.181Z,3.40
2022-09-12T12:18:08.226Z,3.35
2022-09-12T12:23:40.611Z,3.50
2022-09-12T12:29:13.626Z,3.28
2022-09-12T12:40:23.030Z,2.95
2022-09-12T12:46:05.835Z,3.17
2022-09-12T12:51:56.107Z,3.10
2022-09-12T12:57:41.001Z,3.13
2022-09-12T13:03:28.698Z,3.33
2022-09-12T13:09:20.052Z,3.22
2022-09-12T13:14:59.895Z,3.10
2022-09-12T13:20:34.291Z,2.97
2022-09-12T13:26:12.548Z,2.80
2022-09-12T13:31:47.421Z,2.92
2022-09-12T13:37:28.695Z,3.17
2022-09-12T13:43:15.587Z,3.80
2022-09-12T13:48:47.101Z,3.08
2022-09-12T13:54:23.822Z,3.17
2022-09-12T13:59:57.753Z,2.53
2022-09-12T14:05:29.047Z,2.72
2022-09-12T14:11:00.446Z,2.80
2022-09-12T14:16:33.801Z,2.78
2022-09-12T14:22:04.855Z,2.90
2022-09-12T14:27:46.132Z,3.00
2022-09-12T14:33:19.932Z,2.90
2022-09-12T14:39:01.131Z,2.97
2022-09-12T14:44:33.612Z,2.70
2022-09-12T14:50:08.249Z,3.00
2022-09-12T14:55:48.396Z,3.03
2022-09-12T15:01:19.620Z,3.10
2022-09-12T15:06:50.582Z,2.63
2022-09-12T15:12:23.073Z,2.72
2022-09-12T15:17:54.221Z,2.40
2022-09-12T15:23:33.357Z,2.55
2022-09-12T15:29:04.589Z,3.03
2022-09-12T15:34:35.834Z,2.80
2022-09-12T15:40:08.352Z,2.63
2022-09-12T15:51:17.192Z,2.67
2022-09-12T15:56:48.524Z,2.60
2022-09-12T16:02:19.355Z,2.40
2022-09-12T16:07:53.531Z,2.72
2022-09-12T16:13:25.024Z,2.78
2022-09-12T16:18:55.911Z,2.70
2022-09-12T16:24:26.811Z,2.60
2022-09-12T16:29:57.711Z,2.78
2022-09-12T16:35:29.044Z,3.20
2022-09-12T16:41:01.824Z,2.40
2022-09-12T16:46:33.146Z,2.60
2022-09-12T16:52:06.025Z,2.70
2022-09-12T16:57:37.256Z,2.63
2022-09-12T17:03:08.660Z,3.10
2022-09-12T17:08:45.160Z,2.67
2022-09-12T17:14:16.761Z,2.88
2022-09-12T17:19:48.267Z,2.65
2022-09-12T17:25:19.639Z,2.83
2022-09-12T17:31:17.384Z,2.58
2022-09-12T17:36:49.011Z,2.80
2022-09-12T17:42:22.802Z,2.45
2022-09-12T17:47:55.275Z,2.38
2022-09-12T17:53:26.789Z,2.55
2022-09-12T17:58:58.707Z,2.67
2022-09-12T18:04:30.072Z,2.65
2022-09-12T18:10:01.502Z,2.88
2022-09-12T18:15:36.284Z,2.75
2022-09-12T18:21:09.043Z,3.13
2022-09-12T18:26:40.177Z,2.63
2022-09-12T18:32:11.300Z,2.85
2022-09-12T18:37:44.077Z,2.67
2022-09-12T18:43:15.020Z,2.53
2022-09-12T18:48:46.460Z,2.78
2022-09-12T18:54:18.186Z,2.30
2022-09-12T18:59:50.058Z,2.30
2022-09-12T19:05:21.528Z,2.38
2022-09-12T19:10:56.701Z,2.72
2022-09-12T19:16:29.220Z,2.60
2022-09-12T19:22:00.648Z,2.63
2022-09-12T19:27:31.466Z,2.75
2022-09-12T19:33:03.216Z,2.50
2022-09-12T19:38:34.689Z,3.33
2022-09-12T19:44:05.854Z,2.60
2022-09-12T19:49:37.075Z,2.53
2022-09-12T19:55:09.299Z,2.50
2022-09-12T20:00:40.383Z,2.50
2022-09-12T20:06:14.388Z,2.50
2022-09-12T20:11:45.335Z,2.42
2022-09-12T20:17:16.808Z,2.17
2022-09-12T20:22:51.907Z,2.67
2022-09-12T20:28:22.972Z,2.60
2022-09-12T20:33:55.007Z,2.35
2022-09-12T20:39:26.069Z,2.35
2022-09-12T20:44:57.581Z,2.40
2022-09-12T20:50:28.752Z,2.42
2022-09-12T20:55:59.864Z,2.45
2022-09-12T21:01:31.902Z,2.75
2022-09-12T21:07:03.273Z,2.50
2022-09-12T21:12:34.405Z,2.65
2022-09-12T21:18:06.017Z,2.70
2022-09-12T21:23:37.589Z,2.50
2022-09-12T21:29:08.573Z,2.70
2022-09-12T21:34:41.890Z,2.67
2022-09-12T21:45:43.780Z,2.80
2022-09-12T21:51:14.680Z,2.50
2022-09-12T21:56:45.654Z,2.70
2022-09-12T22:02:16.833Z,2.70
2022-09-12T22:07:48.257Z,2.50
2022-09-12T22:13:19.132Z,2.42
2022-09-12T22:18:51.084Z,2.50
2022-09-12T22:24:28.036Z,2.55
2022-09-12T22:29:59.300Z,2.58
2022-09-12T22:35:30.312Z,2.63
2022-09-12T22:41:11.087Z,2.65
2022-09-12T22:46:42.125Z,2.40
2022-09-12T22:52:16.285Z,2.65
2022-09-12T22:57:47.422Z,2.40
2022-09-12T23:03:19.573Z,2.78
2022-09-12T23:08:52.123Z,2.67
2022-09-12T23:14:22.995Z,2.58
2022-09-12T23:19:53.978Z,3.00
2022-09-12T23:25:26.367Z,3.08
2022-09-12T23:30:57.968Z,2.87
2022-09-12T23:36:29.930Z,2.63
2022-09-12T23:42:00.833Z,2.55
2022-09-12T23:47:31.912Z,3.40
2022-09-12T23:53:02.974Z,2.65
2022-09-12T23:58:33.997Z,2.70
